CheckWX is a tool to help pilots better visualize weather data.  It is not intended as a substitute for an official pre-flight weather briefing.

03:40:02 UTC

KSXS METAR
Shell AHP Heliport
Fort Rucker, Alabama, USA
Current

42 mins ago

KSXS 110258Z AUTO 27004KT 10SM CLR 28/25 A2993 RMK AO2 SLP133 T02760249 52006
Observed
Jul-11 @ 02:58 UTC
Wind
  • 270° at 4 KTS
Visibility
10 SM
Flight Rules
VFR
Cloud Levels
  • Clear skies
Temperature
28°C / 82°F
Dewpoint
25°C / 77°F
Humidity
84%
Altimeter
29.93" Hg
Pressure
1013.52 hPa
Previous

2 hours ago

KSXS 110158Z AUTO 30004KT 10SM CLR 29/25 A2993 RMK AO2 SLP133 T02890245
Observed
Jul-11 @ 01:58 UTC
Wind
  • 300° at 4 KTS
Visibility
10 SM
Flight Rules
VFR
Cloud Levels
  • Clear skies
Temperature
29°C / 84°F
Dewpoint
24°C / 75°F
Humidity
74%
Altimeter
29.93" Hg
Pressure
1013.52 hPa
Previous

3 hours ago

KSXS 110058Z AUTO 28004KT 10SM CLR 30/24 A2992 RMK AO2 SLP129 T02970244
Observed
Jul-11 @ 00:58 UTC
Wind
  • 280° at 4 KTS
Visibility
10 SM
Flight Rules
VFR
Cloud Levels
  • Clear skies
Temperature
30°C / 86°F
Dewpoint
24°C / 75°F
Humidity
70%
Altimeter
29.92" Hg
Pressure
1013.22 hPa